Time;durP1;ratioP1;P1;durP2;ratioP2;P2;SDS_P1;SDS_P2;PMS_P1;PMS_P2;Temp;Humidity;BMP_temperature;BMP_pressure;BME280_temperature;BME280_humidity;BME280_pressure;Samples;Min_cycle;Max_cycle;Signal;HPM_P1;HPM_P2
2022/07/27 00:01:05;;;;;;;;;;;14.00;99.90;;;;;;6079875;23;19956;-82
2022/07/27 00:03:33;;;;;;;;;;;14.10;99.90;;;;;;6104023;23;19964;-82
2022/07/27 00:05:59;;;;;;;;;;;14.00;99.90;;;;;;6078496;23;19917;-81
2022/07/27 00:08:25;;;;;;;;;;;13.90;99.90;;;;;;6078164;23;19949;-82
2022/07/27 00:10:51;;;;;;;;;;;13.90;99.90;;;;;;6078440;23;20328;-81
2022/07/27 00:13:17;;;;;;;;;;;13.80;99.90;;;;;;6078304;23;19960;-84
2022/07/27 00:15:45;;;;;;;;;;;13.70;99.90;;;;;;6102257;23;19953;-82
2022/07/27 00:18:13;;;;;;;;;;;13.70;99.90;;;;;;6078152;23;19920;-83
2022/07/27 00:20:39;;;;;;;;;;;13.60;99.90;;;;;;6078838;23;19919;-82
2022/07/27 00:23:05;;;;;;;;;;;13.50;99.90;;;;;;6078534;23;19936;-83
2022/07/27 00:25:31;;;;;;;;;;;13.40;99.90;;;;;;6078271;23;20320;-81
2022/07/27 00:27:57;;;;;;;;;;;13.40;99.90;;;;;;6077997;23;19913;-84
2022/07/27 00:30:26;;;;;;;;;;;13.30;99.90;;;;;;6078260;23;20355;-81
2022/07/27 00:32:51;;;;;;;;;;;13.30;99.90;;;;;;6077152;23;19919;-82
2022/07/27 00:35:17;;;;;;;;;;;13.20;99.90;;;;;;6078259;23;19949;-82
2022/07/27 00:37:43;;;;;;;;;;;13.20;99.90;;;;;;6078351;23;20308;-82
2022/07/27 00:40:09;;;;;;;;;;;13.10;99.90;;;;;;6078037;23;19999;-82
2022/07/27 00:42:35;;;;;;;;;;;13.10;99.90;;;;;;6078410;23;19912;-82
2022/07/27 00:45:01;;;;;;;;;;;13.00;99.90;;;;;;6078202;23;19916;-80
2022/07/27 00:47:34;;;;;;;;;;;13.00;99.90;;;;;;6078387;23;20251;-80
2022/07/27 00:50:03;;;;;;;;;;;12.90;99.90;;;;;;6102130;23;19913;-82
2022/07/27 00:52:33;;;;;;;;;;;12.90;99.90;;;;;;6077747;23;19913;-81
2022/07/27 00:55:00;;;;;;;;;;;12.90;99.90;;;;;;6077900;23;20300;-79
2022/07/27 00:57:26;;;;;;;;;;;12.80;99.90;;;;;;6077950;23;19991;-80
2022/07/27 00:59:52;;;;;;;;;;;12.80;99.90;;;;;;6077826;23;19913;-83
2022/07/27 01:02:18;;;;;;;;;;;12.80;99.90;;;;;;6077867;23;19944;-79
2022/07/27 01:04:46;;;;;;;;;;;12.70;99.90;;;;;;6078278;23;19917;-79
2022/07/27 01:07:15;;;;;;;;;;;12.70;99.90;;;;;;6077814;23;19913;-80
2022/07/27 01:10:05;;;;;;;;;;;12.60;99.90;;;;;;6077486;23;19917;-81
2022/07/27 01:12:31;;;;;;;;;;;12.60;99.90;;;;;;6101387;23;19913;-81
2022/07/27 01:14:57;;;;;;;;;;;12.50;99.90;;;;;;6077485;23;19913;-80
2022/07/27 01:17:25;;;;;;;;;;;12.60;99.90;;;;;;6078057;23;19916;-80
2022/07/27 01:19:56;;;;;;;;;;;12.50;99.90;;;;;;6078152;23;19935;-80
2022/07/27 01:22:24;;;;;;;;;;;12.50;99.90;;;;;;6079957;23;19920;-81
2022/07/27 01:24:50;;;;;;;;;;;12.40;99.90;;;;;;6080236;23;19912;-80
2022/07/27 01:27:15;;;;;;;;;;;12.40;99.90;;;;;;6077986;23;19964;-80
2022/07/27 01:29:41;;;;;;;;;;;12.40;99.90;;;;;;6077770;23;19940;-82
2022/07/27 01:32:09;;;;;;;;;;;12.40;99.90;;;;;;6101901;23;19912;-80
2022/07/27 01:34:35;;;;;;;;;;;12.40;99.90;;;;;;6076851;23;19913;-81
2022/07/27 01:37:04;;;;;;;;;;;12.30;99.90;;;;;;6077591;23;19924;-79
2022/07/27 01:39:33;;;;;;;;;;;12.30;99.90;;;;;;6077250;23;19912;-81
2022/07/27 01:41:59;;;;;;;;;;;12.30;99.90;;;;;;6076711;23;20317;-81
2022/07/27 01:44:32;;;;;;;;;;;12.30;99.90;;;;;;6076846;23;19920;-81
2022/07/27 01:46:58;;;;;;;;;;;12.20;99.90;;;;;;6078114;23;20288;-81
2022/07/27 01:49:29;;;;;;;;;;;12.20;99.90;;;;;;6077964;23;19993;-82
2022/07/27 01:52:00;;;;;;;;;;;12.20;99.90;;;;;;6077522;23;20321;-81
2022/07/27 01:54:25;;;;;;;;;;;12.20;99.90;;;;;;6077661;23;20002;-81
2022/07/27 01:56:54;;;;;;;;;;;12.20;99.90;;;;;;6077170;23;20265;-81
2022/07/27 01:59:22;;;;;;;;;;;12.20;99.90;;;;;;6077498;23;19912;-80
2022/07/27 02:01:48;;;;;;;;;;;12.20;99.90;;;;;;6077462;23;19913;-81
2022/07/27 02:04:14;;;;;;;;;;;12.30;99.90;;;;;;6077384;23;19912;-79
2022/07/27 02:06:40;;;;;;;;;;;12.30;99.90;;;;;;6077630;23;20232;-81
2022/07/27 02:09:08;;;;;;;;;;;12.30;99.90;;;;;;6077377;23;19936;-82
2022/07/27 02:14:24;;;;;;;;;;;12.30;99.90;;;;;;6100949;23;19912;-82
2022/07/27 02:16:50;;;;;;;;;;;12.40;99.90;;;;;;6077298;23;19928;-81
2022/07/27 02:19:16;;;;;;;;;;;12.40;99.90;;;;;;6077463;23;19912;-80
2022/07/27 02:21:51;;;;;;;;;;;12.50;99.90;;;;;;6076983;23;20339;-82
2022/07/27 02:24:17;;;;;;;;;;;12.50;99.90;;;;;;6077250;23;19948;-81
2022/07/27 02:26:43;;;;;;;;;;;12.50;99.90;;;;;;6076972;23;19912;-81
2022/07/27 02:29:11;;;;;;;;;;;12.40;99.90;;;;;;6077191;23;19912;-81
2022/07/27 02:31:46;;;;;;;;;;;12.50;99.90;;;;;;6077177;23;19919;-81
2022/07/27 02:34:12;;;;;;;;;;;12.60;99.90;;;;;;6077025;23;19919;-81
2022/07/27 02:36:40;;;;;;;;;;;12.60;99.90;;;;;;6076823;23;20330;-81
2022/07/27 02:39:06;;;;;;;;;;;12.60;99.90;;;;;;6077844;23;20044;-80
2022/07/27 02:41:32;;;;;;;;;;;12.60;99.90;;;;;;6077135;23;20315;-82
2022/07/27 02:43:57;;;;;;;;;;;12.60;99.90;;;;;;6077350;23;20006;-80
2022/07/27 02:46:26;;;;;;;;;;;12.60;99.90;;;;;;6078192;23;19913;-81
2022/07/27 02:48:51;;;;;;;;;;;12.60;99.90;;;;;;6078937;23;19984;-80
2022/07/27 02:51:22;;;;;;;;;;;12.60;99.90;;;;;;6078543;23;19941;-82
2022/07/27 02:53:49;;;;;;;;;;;12.60;99.90;;;;;;6076984;23;19991;-81
2022/07/27 02:56:17;;;;;;;;;;;12.60;99.90;;;;;;6077380;23;19938;-82
2022/07/27 02:58:46;;;;;;;;;;;12.60;99.90;;;;;;6076732;23;20580;-81
2022/07/27 03:01:14;;;;;;;;;;;12.60;99.90;;;;;;6076879;23;19913;-81
2022/07/27 03:03:42;;;;;;;;;;;12.60;99.90;;;;;;6053277;23;19988;-82
2022/07/27 03:06:10;;;;;;;;;;;12.60;99.90;;;;;;6077264;23;19920;-82
2022/07/27 03:08:39;;;;;;;;;;;12.70;99.90;;;;;;6053302;23;19913;-81
2022/07/27 03:11:10;;;;;;;;;;;12.70;99.90;;;;;;6077654;23;19917;-81
2022/07/27 03:13:40;;;;;;;;;;;12.70;99.90;;;;;;6055016;23;20279;-80
2022/07/27 03:16:06;;;;;;;;;;;12.80;99.90;;;;;;6076967;23;19912;-81
2022/07/27 03:18:43;;;;;;;;;;;12.80;99.90;;;;;;6078961;23;20240;-82
2022/07/27 03:21:12;;;;;;;;;;;12.80;99.90;;;;;;6079036;23;20312;-81
2022/07/27 03:23:38;;;;;;;;;;;12.80;99.90;;;;;;6079141;23;19913;-81
2022/07/27 03:26:03;;;;;;;;;;;12.90;99.90;;;;;;6078230;23;19912;-81
2022/07/27 03:28:32;;;;;;;;;;;12.90;99.90;;;;;;6078972;23;19920;-80
2022/07/27 03:30:58;;;;;;;;;;;13.00;99.90;;;;;;6077838;23;19913;-81
2022/07/27 03:33:26;;;;;;;;;;;13.00;99.90;;;;;;6079127;23;19912;-80
2022/07/27 03:35:52;;;;;;;;;;;13.00;99.90;;;;;;6078792;23;20235;-82
2022/07/27 03:38:17;;;;;;;;;;;13.10;99.90;;;;;;6078682;23;19988;-80
2022/07/27 03:40:45;;;;;;;;;;;13.20;99.90;;;;;;6079049;23;19920;-81
2022/07/27 03:43:11;;;;;;;;;;;13.30;99.90;;;;;;6055079;23;20006;-80
2022/07/27 03:45:39;;;;;;;;;;;13.40;99.90;;;;;;6078824;23;20316;-81
2022/07/27 03:48:08;;;;;;;;;;;13.40;99.90;;;;;;6078676;23;20324;-81
2022/07/27 03:50:35;;;;;;;;;;;13.50;99.90;;;;;;6078368;23;19913;-80
2022/07/27 03:53:00;;;;;;;;;;;13.50;99.90;;;;;;6078785;23;20311;-80
2022/07/27 03:55:26;;;;;;;;;;;13.50;99.90;;;;;;6078738;23;19912;-82
2022/07/27 03:57:52;;;;;;;;;;;13.50;99.90;;;;;;6077890;23;19968;-82
2022/07/27 04:00:23;;;;;;;;;;;13.50;99.90;;;;;;6080124;23;19984;-80
2022/07/27 04:02:50;;;;;;;;;;;13.40;99.90;;;;;;6078952;23;20297;-81
2022/07/27 04:05:19;;;;;;;;;;;13.50;99.90;;;;;;6078771;23;20313;-81
2022/07/27 04:07:45;;;;;;;;;;;13.50;99.90;;;;;;6078315;23;19991;-80
2022/07/27 04:10:11;;;;;;;;;;;13.50;99.90;;;;;;6078863;23;19952;-81
2022/07/27 04:12:37;;;;;;;;;;;13.60;99.90;;;;;;6079457;23;19919;-82
2022/07/27 04:15:03;;;;;;;;;;;13.60;99.90;;;;;;6078836;23;19976;-81
2022/07/27 04:17:29;;;;;;;;;;;13.60;99.90;;;;;;6077633;23;19917;-81
2022/07/27 04:20:00;;;;;;;;;;;13.60;99.90;;;;;;6078989;23;19912;-81
2022/07/27 04:22:26;;;;;;;;;;;13.70;99.90;;;;;;6078565;23;20231;-79
2022/07/27 04:24:54;;;;;;;;;;;13.70;99.90;;;;;;6078502;23;19948;-81
2022/07/27 04:27:20;;;;;;;;;;;13.70;99.90;;;;;;6078050;23;20352;-82
2022/07/27 04:29:46;;;;;;;;;;;13.70;99.90;;;;;;6078231;23;19920;-80
2022/07/27 04:32:12;;;;;;;;;;;13.70;99.90;;;;;;6079093;23;20351;-81
2022/07/27 04:34:40;;;;;;;;;;;13.70;99.90;;;;;;6078178;23;20317;-81
2022/07/27 04:37:06;;;;;;;;;;;13.70;99.90;;;;;;6078237;23;19917;-80
2022/07/27 04:39:32;;;;;;;;;;;13.70;99.90;;;;;;6077712;23;20197;-80
2022/07/27 04:42:00;;;;;;;;;;;13.70;99.90;;;;;;6078547;23;19920;-81
2022/07/27 04:44:28;;;;;;;;;;;13.60;99.90;;;;;;6078250;23;19913;-82
2022/07/27 04:46:54;;;;;;;;;;;13.60;99.90;;;;;;6078124;23;19913;-81
2022/07/27 04:49:22;;;;;;;;;;;13.60;99.90;;;;;;6078425;23;20399;-80
2022/07/27 04:51:53;;;;;;;;;;;13.50;99.90;;;;;;6078840;23;19952;-81
2022/07/27 04:54:18;;;;;;;;;;;13.50;99.90;;;;;;6077798;23;19917;-80
2022/07/27 04:56:44;;;;;;;;;;;13.40;99.90;;;;;;6077982;23;19933;-80
2022/07/27 04:59:10;;;;;;;;;;;13.50;99.90;;;;;;6078498;23;20351;-82
2022/07/27 05:01:39;;;;;;;;;;;13.40;99.90;;;;;;6078353;23;20001;-80
2022/07/27 05:04:05;;;;;;;;;;;13.40;99.90;;;;;;6077992;23;19913;-81
2022/07/27 05:06:31;;;;;;;;;;;13.40;99.90;;;;;;6077863;23;19996;-80
2022/07/27 05:08:58;;;;;;;;;;;13.50;99.90;;;;;;6077723;23;19944;-82
2022/07/27 05:11:23;;;;;;;;;;;13.60;99.90;;;;;;6077937;23;19964;-81
2022/07/27 05:13:52;;;;;;;;;;;13.50;99.90;;;;;;6078440;23;19984;-80
2022/07/27 05:16:17;;;;;;;;;;;13.70;99.90;;;;;;6077993;23;19975;-82
2022/07/27 05:18:45;;;;;;;;;;;13.70;99.90;;;;;;6077650;23;19913;-81
2022/07/27 05:21:11;;;;;;;;;;;13.80;99.90;;;;;;6078358;23;19920;-80
2022/07/27 05:23:40;;;;;;;;;;;13.90;99.90;;;;;;6077274;23;20244;-81
2022/07/27 05:26:09;;;;;;;;;;;14.00;99.90;;;;;;6078012;23;19964;-82
2022/07/27 05:28:35;;;;;;;;;;;14.30;99.90;;;;;;6077927;23;19913;-81
2022/07/27 05:31:03;;;;;;;;;;;14.30;99.90;;;;;;6077815;23;19917;-82
2022/07/27 05:33:31;;;;;;;;;;;14.30;99.90;;;;;;6077833;23;19912;-81
2022/07/27 05:35:57;;;;;;;;;;;14.50;99.90;;;;;;6077644;23;20000;-81
2022/07/27 05:38:25;;;;;;;;;;;14.70;99.90;;;;;;6078856;23;20268;-81
2022/07/27 05:40:51;;;;;;;;;;;14.80;99.90;;;;;;6077833;23;19917;-80
2022/07/27 05:43:20;;;;;;;;;;;15.00;99.90;;;;;;6077994;23;19916;-81
2022/07/27 05:45:49;;;;;;;;;;;15.20;99.90;;;;;;6078453;23;19988;-81
2022/07/27 05:48:14;;;;;;;;;;;15.30;99.90;;;;;;6077817;23;19913;-71
2022/07/27 05:50:40;;;;;;;;;;;15.40;99.90;;;;;;6101435;23;19924;-71
2022/07/27 05:53:05;;;;;;;;;;;15.60;99.90;;;;;;6077792;23;19987;-71
2022/07/27 05:55:32;;;;;;;;;;;15.80;99.90;;;;;;6101364;23;19912;-71
2022/07/27 05:57:57;;;;;;;;;;;16.00;99.90;;;;;;6077196;23;19923;-71
2022/07/27 06:00:23;;;;;;;;;;;16.10;99.90;;;;;;6125596;23;19917;-72
2022/07/27 06:02:48;;;;;;;;;;;16.30;99.90;;;;;;6077460;23;19917;-72
2022/07/27 06:05:14;;;;;;;;;;;16.50;99.90;;;;;;6077427;23;19972;-70
2022/07/27 06:07:58;;;;;;;;;;;16.70;99.90;;;;;;6077828;23;20001;-72
2022/07/27 06:10:27;;;;;;;;;;;16.90;99.90;;;;;;6101971;23;19968;-71
2022/07/27 06:12:53;;;;;;;;;;;17.10;99.90;;;;;;6127389;23;20240;-70
2022/07/27 06:15:18;;;;;;;;;;;17.20;99.90;;;;;;6077748;23;20021;-72
2022/07/27 06:17:51;;;;;;;;;;;17.30;99.90;;;;;;6101699;23;20214;-72
2022/07/27 06:20:17;;;;;;;;;;;17.30;99.90;;;;;;6101577;23;19924;-72
2022/07/27 06:22:48;;;;;;;;;;;17.50;99.90;;;;;;6101480;23;19955;-73
2022/07/27 06:25:14;;;;;;;;;;;17.60;99.90;;;;;;6101033;23;19916;-70
2022/07/27 06:27:40;;;;;;;;;;;17.70;99.90;;;;;;6101427;23;19917;-70
2022/07/27 06:30:06;;;;;;;;;;;17.80;99.90;;;;;;6101460;23;19917;-70
2022/07/27 06:32:33;;;;;;;;;;;18.10;99.90;;;;;;6101335;23;19964;-74
2022/07/27 06:35:00;;;;;;;;;;;18.30;99.80;;;;;;6101228;23;19917;-74
2022/07/27 06:37:28;;;;;;;;;;;18.60;99.80;;;;;;6077361;23;19995;-71
2022/07/27 06:39:54;;;;;;;;;;;18.80;99.40;;;;;;6101392;23;19967;-73
2022/07/27 06:42:19;;;;;;;;;;;19.00;98.50;;;;;;6077262;23;20250;-75
2022/07/27 06:44:45;;;;;;;;;;;18.90;98.30;;;;;;6101058;23;19923;-75
2022/07/27 06:47:10;;;;;;;;;;;18.70;99.00;;;;;;6096740;23;19916;-77
2022/07/27 06:49:36;;;;;;;;;;;18.60;99.20;;;;;;6098948;23;19948;-77
2022/07/27 06:52:02;;;;;;;;;;;18.40;99.30;;;;;;6098794;23;19917;-72
2022/07/27 06:54:27;;;;;;;;;;;18.30;99.80;;;;;;6075455;23;20314;-75
2022/07/27 06:56:53;;;;;;;;;;;18.10;99.90;;;;;;6098523;23;20287;-75
2022/07/27 06:59:19;;;;;;;;;;;18.10;99.90;;;;;;6099617;23;19917;-74
2022/07/27 07:01:44;;;;;;;;;;;18.00;99.90;;;;;;6099577;23;19971;-72
2022/07/27 07:04:16;;;;;;;;;;;18.00;99.90;;;;;;6099872;23;19925;-73
2022/07/27 07:07:07;;;;;;;;;;;17.90;99.90;;;;;;6051778;23;19913;-73
2022/07/27 07:12:44;;;;;;;;;;;18.00;99.90;;;;;;6084646;23;19939;-73
2022/07/27 07:15:31;;;;;;;;;;;18.20;99.90;;;;;;6120337;23;19967;-72
2022/07/27 07:17:57;;;;;;;;;;;18.30;99.90;;;;;;6099355;23;19960;-70
2022/07/27 07:20:23;;;;;;;;;;;18.50;99.90;;;;;;6099336;23;19916;-71
2022/07/27 07:22:49;;;;;;;;;;;18.70;99.80;;;;;;6099997;23;20021;-71
2022/07/27 07:25:14;;;;;;;;;;;18.80;99.30;;;;;;6099796;23;19917;-73
2022/07/27 07:27:40;;;;;;;;;;;18.80;99.40;;;;;;6125444;23;20304;-71
2022/07/27 07:30:06;;;;;;;;;;;18.60;98.80;;;;;;6099682;23;19924;-72
2022/07/27 07:32:32;;;;;;;;;;;18.40;99.30;;;;;;6075967;23;20213;-74
2022/07/27 07:34:57;;;;;;;;;;;17.90;99.90;;;;;;6099845;23;19923;-72
2022/07/27 07:37:23;;;;;;;;;;;17.60;99.90;;;;;;6099554;23;19960;-73
2022/07/27 07:39:49;;;;;;;;;;;17.20;99.90;;;;;;6100154;23;19924;-73
2022/07/27 07:42:14;;;;;;;;;;;17.10;99.90;;;;;;6075827;23;19968;-71
2022/07/27 07:44:40;;;;;;;;;;;17.00;99.90;;;;;;6101052;23;19923;-71
2022/07/27 07:47:06;;;;;;;;;;;17.00;99.90;;;;;;6076736;23;19917;-72
2022/07/27 07:49:31;;;;;;;;;;;17.10;99.90;;;;;;6100677;23;19913;-72
2022/07/27 07:51:57;;;;;;;;;;;17.20;99.90;;;;;;6101068;23;19912;-73
2022/07/27 07:54:23;;;;;;;;;;;17.10;99.90;;;;;;6100886;23;20269;-72
2022/07/27 07:56:48;;;;;;;;;;;17.30;99.90;;;;;;6100821;23;19917;-72
2022/07/27 07:59:14;;;;;;;;;;;17.40;99.90;;;;;;6100903;23;20002;-70
2022/07/27 08:01:39;;;;;;;;;;;17.50;99.90;;;;;;6101089;23;19921;-71
2022/07/27 08:04:05;;;;;;;;;;;17.60;99.90;;;;;;6128300;23;20247;-71
2022/07/27 08:06:31;;;;;;;;;;;17.70;99.90;;;;;;6054402;23;19920;-71
2022/07/27 08:08:57;;;;;;;;;;;17.60;99.90;;;;;;6102792;23;19913;-71
2022/07/27 08:11:22;;;;;;;;;;;17.50;99.90;;;;;;6102255;23;19912;-71
2022/07/27 08:13:48;;;;;;;;;;;17.60;99.90;;;;;;6102750;23;19919;-71
2022/07/27 08:16:14;;;;;;;;;;;17.60;99.90;;;;;;6128315;23;19917;-71
2022/07/27 08:18:39;;;;;;;;;;;17.60;99.90;;;;;;6102971;23;20300;-71
2022/07/27 08:21:05;;;;;;;;;;;17.70;99.90;;;;;;6102561;23;20348;-71
2022/07/27 08:23:31;;;;;;;;;;;17.70;99.90;;;;;;6078535;23;19921;-71
2022/07/27 08:25:57;;;;;;;;;;;17.80;99.90;;;;;;6102729;23;20291;-71
2022/07/27 08:28:22;;;;;;;;;;;17.80;99.90;;;;;;6102682;23;19952;-71
2022/07/27 08:30:48;;;;;;;;;;;17.80;99.90;;;;;;6127925;23;19917;-70
2022/07/27 08:33:13;;;;;;;;;;;17.90;99.90;;;;;;6078458;23;19924;-71
2022/07/27 08:35:39;;;;;;;;;;;18.00;99.90;;;;;;6101933;23;19916;-71
2022/07/27 08:38:06;;;;;;;;;;;18.10;99.90;;;;;;6128378;23;19917;-70
2022/07/27 08:40:32;;;;;;;;;;;18.20;99.90;;;;;;6102364;23;20247;-71
2022/07/27 08:42:59;;;;;;;;;;;18.30;99.90;;;;;;6128402;23;19917;-71
2022/07/27 08:45:25;;;;;;;;;;;18.40;99.90;;;;;;6126730;23;19917;-72
2022/07/27 08:47:51;;;;;;;;;;;18.50;99.20;;;;;;6126727;23;19920;-71
2022/07/27 08:50:23;;;;;;;;;;;18.30;98.80;;;;;;6077815;23;19917;-71
2022/07/27 08:52:49;;;;;;;;;;;18.40;99.40;;;;;;6102453;23;19952;-72
2022/07/27 08:55:15;;;;;;;;;;;18.60;99.20;;;;;;6077745;23;19916;-71
2022/07/27 08:57:40;;;;;;;;;;;19.00;98.40;;;;;;6077866;23;19972;-71
2022/07/27 09:00:06;;;;;;;;;;;19.40;96.30;;;;;;6126565;23;19952;-71
2022/07/27 09:02:32;;;;;;;;;;;19.60;96.10;;;;;;6102181;23;19917;-72
2022/07/27 09:04:57;;;;;;;;;;;20.00;96.00;;;;;;6077965;23;19921;-72
2022/07/27 09:07:27;;;;;;;;;;;20.30;95.80;;;;;;6078381;23;19917;-72
2022/07/27 09:09:53;;;;;;;;;;;20.60;94.50;;;;;;6102261;23;19924;-72
2022/07/27 09:12:25;;;;;;;;;;;20.70;91.70;;;;;;6102131;23;19923;-72
2022/07/27 09:15:01;;;;;;;;;;;20.40;92.60;;;;;;6101948;23;19917;-72
2022/07/27 09:17:27;;;;;;;;;;;19.80;93.20;;;;;;6078208;23;19960;-72
2022/07/27 09:19:57;;;;;;;;;;;19.30;94.70;;;;;;6053670;23;19923;-72
2022/07/27 09:22:41;;;;;;;;;;;19.10;95.00;;;;;;6078038;23;19924;-72
2022/07/27 09:25:08;;;;;;;;;;;19.00;96.40;;;;;;6102149;23;19917;-71
2022/07/27 09:27:34;;;;;;;;;;;18.70;96.20;;;;;;6101984;23;19916;-71
2022/07/27 09:30:05;;;;;;;;;;;18.60;96.40;;;;;;6101894;23;20295;-72
2022/07/27 09:32:30;;;;;;;;;;;18.60;97.10;;;;;;6102039;23;19927;-72
2022/07/27 09:34:56;;;;;;;;;;;18.60;96.80;;;;;;6078100;23;19917;-72
2022/07/27 09:37:22;;;;;;;;;;;18.70;96.80;;;;;;6077973;23;19924;-71
2022/07/27 09:39:48;;;;;;;;;;;18.80;96.60;;;;;;6101664;23;19972;-73
2022/07/27 09:42:15;;;;;;;;;;;19.20;96.90;;;;;;6101490;23;19917;-73
2022/07/27 09:44:41;;;;;;;;;;;19.30;95.90;;;;;;6101730;23;20344;-71
2022/07/27 09:47:26;;;;;;;;;;;19.50;96.50;;;;;;6101851;23;19998;-73
2022/07/27 09:49:52;;;;;;;;;;;19.70;95.50;;;;;;6077702;23;19917;-73
2022/07/27 09:52:25;;;;;;;;;;;20.00;92.30;;;;;;6077787;23;19917;-72
2022/07/27 09:54:51;;;;;;;;;;;20.00;92.20;;;;;;6101968;23;19924;-72
2022/07/27 09:57:17;;;;;;;;;;;20.10;91.80;;;;;;6101258;23;19917;-72
2022/07/27 09:59:43;;;;;;;;;;;20.00;92.20;;;;;;6077453;23;20320;-71
2022/07/27 10:02:11;;;;;;;;;;;20.10;92.90;;;;;;6127586;23;19924;-73
2022/07/27 10:04:36;;;;;;;;;;;20.30;92.60;;;;;;6127473;23;19916;-72
2022/07/27 10:07:02;;;;;;;;;;;20.60;93.00;;;;;;6125950;23;19924;-72
2022/07/27 10:09:31;;;;;;;;;;;20.80;91.50;;;;;;6127388;23;19979;-72
2022/07/27 10:12:03;;;;;;;;;;;20.90;91.70;;;;;;6101646;23;20287;-71
2022/07/27 10:14:31;;;;;;;;;;;20.90;91.40;;;;;;6101287;23;20287;-72
2022/07/27 10:16:57;;;;;;;;;;;21.10;91.20;;;;;;6127710;23;19917;-72
2022/07/27 10:19:28;;;;;;;;;;;20.90;90.80;;;;;;6101382;23;19995;-73
2022/07/27 10:21:54;;;;;;;;;;;21.00;87.80;;;;;;6101494;23;19924;-71
2022/07/27 10:24:25;;;;;;;;;;;20.80;89.80;;;;;;6101641;23;19920;-72
2022/07/27 10:26:51;;;;;;;;;;;20.50;88.80;;;;;;6101239;23;20344;-73
2022/07/27 10:29:17;;;;;;;;;;;20.50;89.10;;;;;;6127199;23;19919;-73
2022/07/27 10:31:52;;;;;;;;;;;20.50;90.20;;;;;;6077449;23;20236;-72
2022/07/27 10:34:38;;;;;;;;;;;20.60;85.80;;;;;;6101383;23;20380;-72
2022/07/27 10:37:22;;;;;;;;;;;20.70;87.50;;;;;;6127130;23;19920;-72
2022/07/27 10:42:44;;;;;;;;;;;21.10;84.60;;;;;;6101460;23;19916;-71
2022/07/27 10:45:11;;;;;;;;;;;21.00;86.40;;;;;;6101410;23;20312;-73
2022/07/27 10:47:38;;;;;;;;;;;21.10;86.20;;;;;;6101355;23;19924;-73
2022/07/27 10:50:10;;;;;;;;;;;21.30;84.70;;;;;;6101490;23;20325;-74
2022/07/27 10:52:41;;;;;;;;;;;21.30;84.60;;;;;;6101495;23;19940;-72
2022/07/27 10:55:09;;;;;;;;;;;21.30;83.50;;;;;;6101008;23;19971;-74
2022/07/27 10:57:35;;;;;;;;;;;21.10;83.00;;;;;;6100228;23;19964;-72
2022/07/27 11:00:40;;;;;;;;;;;20.90;83.10;;;;;;6126747;23;19924;-72
2022/07/27 11:03:56;;;;;;;;;;;20.70;84.20;;;;;;6099696;23;19920;-71
2022/07/27 11:06:24;;;;;;;;;;;20.90;83.90;;;;;;6100413;23;19913;-73
2022/07/27 11:08:53;;;;;;;;;;;21.10;85.80;;;;;;6102225;23;19920;-72
2022/07/27 11:11:19;;;;;;;;;;;21.30;87.10;;;;;;6126766;23;20216;-73
2022/07/27 11:13:48;;;;;;;;;;;21.40;82.30;;;;;;6101385;23;19940;-74
2022/07/27 11:16:23;;;;;;;;;;;21.80;84.80;;;;;;6100995;23;19917;-71
2022/07/27 11:22:04;;;;;;;;;;;22.00;82.60;;;;;;5968481;23;20369;-71
2022/07/27 11:24:32;;;;;;;;;;;22.00;84.50;;;;;;6127431;23;19913;-76
2022/07/27 11:26:58;;;;;;;;;;;21.90;81.10;;;;;;6077297;23;20244;-76
2022/07/27 11:29:23;;;;;;;;;;;22.20;83.70;;;;;;6076851;23;19983;-77
2022/07/27 11:31:51;;;;;;;;;;;22.30;82.50;;;;;;6077756;23;19980;-78
2022/07/27 11:34:19;;;;;;;;;;;22.20;87.20;;;;;;6077545;23;19919;-79
2022/07/27 11:36:51;;;;;;;;;;;21.70;88.20;;;;;;6100935;23;19913;-80
2022/07/27 11:39:20;;;;;;;;;;;21.40;89.60;;;;;;6079787;23;19924;-78
2022/07/27 11:41:46;;;;;;;;;;;21.40;90.10;;;;;;6079025;23;19920;-78
2022/07/27 11:44:18;;;;;;;;;;;21.00;90.10;;;;;;6079604;23;19912;-78
2022/07/27 11:46:44;;;;;;;;;;;20.90;89.90;;;;;;6055479;23;20292;-79
2022/07/27 11:49:11;;;;;;;;;;;20.70;90.40;;;;;;6079076;23;19958;-78
2022/07/27 11:51:47;;;;;;;;;;;20.40;90.70;;;;;;6102485;23;19988;-78
2022/07/27 11:54:13;;;;;;;;;;;20.30;90.50;;;;;;6054804;23;20008;-78
2022/07/27 11:56:42;;;;;;;;;;;20.20;90.50;;;;;;6079501;23;20320;-79
2022/07/27 11:59:12;;;;;;;;;;;20.10;90.30;;;;;;6079268;23;20240;-79
2022/07/27 12:02:28;;;;;;;;;;;;;;;;;;;;;
2022/07/27 12:05:17;;;;;;;;;;;19.90;87.30;;;;;;6098014;23;20394;-79
2022/07/27 12:08:10;;;;;;;;;;;20.20;87.40;;;;;;6078049;23;19913;-78
2022/07/27 12:10:35;;;;;;;;;;;20.20;83.30;;;;;;6102798;23;19912;-75
2022/07/27 12:13:01;;;;;;;;;;;20.30;84.40;;;;;;6102313;23;19965;-76
2022/07/27 12:15:27;;;;;;;;;;;20.30;85.30;;;;;;6078183;23;20324;-72
2022/07/27 12:17:56;;;;;;;;;;;20.40;83.90;;;;;;6102270;23;19923;-72
2022/07/27 12:24:32;;;;;;;;;;;20.70;85.30;;;;;;6078319;23;20108;-77
2022/07/27 12:26:36;;;;;;;;;;;20.30;87.00;;;;;;6084525;23;19912;-78
2022/07/27 12:29:16;;;;;;;;;;;20.50;88.30;;;;;;6078186;23;20221;-74
2022/07/27 12:31:48;;;;;;;;;;;20.80;86.40;;;;;;6014513;23;19914;-79
2022/07/27 12:34:14;;;;;;;;;;;20.90;85.40;;;;;;5991828;23;20342;-77
2022/07/27 12:36:40;;;;;;;;;;;20.80;82.00;;;;;;6014993;23;19961;-77
2022/07/27 12:39:06;;;;;;;;;;;20.50;85.10;;;;;;6038785;23;19985;-79
2022/07/27 12:41:38;;;;;;;;;;;20.60;89.00;;;;;;5991424;23;20360;-78
2022/07/27 12:44:49;;;;;;;;;;;20.80;89.00;;;;;;6026934;23;19913;-77
2022/07/27 12:53:22;;;;;;;;;;;21.10;85.90;;;;;;6008823;23;20293;-76
2022/07/27 12:55:47;;;;;;;;;;;20.80;88.00;;;;;;6038526;23;19941;-73
2022/07/27 12:58:13;;;;;;;;;;;20.80;89.00;;;;;;6014005;23;19925;-73
2022/07/27 13:00:40;;;;;;;;;;;20.90;87.70;;;;;;5991229;23;20338;-74
2022/07/27 13:03:05;;;;;;;;;;;20.80;88.40;;;;;;6072994;23;20320;-73
2022/07/27 13:05:32;;;;;;;;;;;21.10;87.90;;;;;;6078125;23;19919;-77
2022/07/27 13:07:57;;;;;;;;;;;21.10;87.30;;;;;;6102799;23;19917;-74
2022/07/27 13:10:23;;;;;;;;;;;21.00;86.80;;;;;;6102737;23;19963;-79
2022/07/27 13:12:49;;;;;;;;;;;21.30;88.20;;;;;;6102813;23;20299;-79
2022/07/27 13:15:24;;;;;;;;;;;21.40;88.80;;;;;;6078746;23;19922;-82
2022/07/27 13:17:50;;;;;;;;;;;21.10;88.30;;;;;;6077940;23;19943;-80
2022/07/27 13:20:16;;;;;;;;;;;21.10;87.50;;;;;;6077867;23;20356;-78
2022/07/27 13:22:43;;;;;;;;;;;20.90;89.80;;;;;;6078416;23;19920;-80
2022/07/27 13:25:09;;;;;;;;;;;20.80;87.70;;;;;;6102251;23;19913;-80
2022/07/27 13:27:39;;;;;;;;;;;20.50;89.10;;;;;;6078074;23;19919;-77
2022/07/27 13:30:05;;;;;;;;;;;20.40;90.20;;;;;;6102027;23;20332;-79
2022/07/27 13:32:31;;;;;;;;;;;20.30;90.40;;;;;;6101849;23;19955;-79
2022/07/27 13:34:57;;;;;;;;;;;20.30;90.60;;;;;;6101359;23;19920;-81
2022/07/27 13:37:22;;;;;;;;;;;20.30;91.10;;;;;;6102036;23;19912;-80
2022/07/27 13:39:48;;;;;;;;;;;20.40;90.20;;;;;;6101573;23;19967;-78
2022/07/27 13:42:14;;;;;;;;;;;20.30;90.30;;;;;;6101874;23;19984;-79
2022/07/27 13:44:39;;;;;;;;;;;20.10;90.60;;;;;;6102197;23;19912;-79
2022/07/27 13:47:05;;;;;;;;;;;20.00;90.90;;;;;;6102217;23;19948;-81
2022/07/27 13:49:31;;;;;;;;;;;19.80;90.70;;;;;;6102257;23;19955;-78
2022/07/27 13:51:57;;;;;;;;;;;19.80;91.90;;;;;;6102528;23;19912;-80
2022/07/27 13:54:22;;;;;;;;;;;19.70;91.90;;;;;;6102417;23;19913;-77
2022/07/27 13:56:48;;;;;;;;;;;19.70;92.80;;;;;;6077904;23;19935;-79
2022/07/27 13:59:16;;;;;;;;;;;19.70;93.20;;;;;;6078021;23;19942;-82
2022/07/27 15:33:07;;;;;;;;;;;22.40;79.20;;;;;;6182831;22;19943;-76
2022/07/27 16:12:34;;;;;;;;;;;23.20;70.50;;;;;;6068303;23;19969;-79
2022/07/27 16:15:00;;;;;;;;;;;23.50;69.30;;;;;;6088216;23;19959;-73
2022/07/27 16:17:25;;;;;;;;;;;23.40;68.00;;;;;;6136919;23;19995;-75
2022/07/27 16:19:51;;;;;;;;;;;23.40;68.70;;;;;;6161770;23;19912;-73
2022/07/27 16:22:16;;;;;;;;;;;23.30;70.20;;;;;;6161922;23;19916;-73
2022/07/27 16:24:45;;;;;;;;;;;23.00;70.80;;;;;;6161590;23;19971;-75
2022/07/27 16:27:11;;;;;;;;;;;22.80;71.50;;;;;;6137005;23;19919;-75
2022/07/27 16:29:36;;;;;;;;;;;22.80;72.00;;;;;;6161580;23;19955;-75
2022/07/27 16:32:04;;;;;;;;;;;22.70;72.50;;;;;;6137217;23;19919;-75
2022/07/27 16:34:31;;;;;;;;;;;22.60;73.40;;;;;;6136863;23;19994;-75
2022/07/27 16:36:57;;;;;;;;;;;21.80;74.30;;;;;;6161730;23;19916;-77
2022/07/27 16:39:23;;;;;;;;;;;21.50;75.60;;;;;;6161999;23;19923;-78
2022/07/27 16:41:50;;;;;;;;;;;21.10;76.60;;;;;;6136992;23;19912;-78
2022/07/27 16:44:16;;;;;;;;;;;21.60;76.90;;;;;;6161462;23;20323;-76
2022/07/27 16:46:43;;;;;;;;;;;22.00;75.80;;;;;;6161549;23;19912;-76
2022/07/27 16:49:08;;;;;;;;;;;22.10;73.50;;;;;;6161424;23;19986;-76
2022/07/27 16:51:34;;;;;;;;;;;21.80;72.50;;;;;;6137072;23;19959;-75
2022/07/27 16:54:02;;;;;;;;;;;21.50;74.90;;;;;;6161549;23;19916;-75